Time;durP1;ratioP1;P1;durP2;ratioP2;P2;SDS_P1;SDS_P2;PMS_P1;PMS_P2;Temp;Humidity;BMP_temperature;BMP_pressure;BME280_temperature;BME280_humidity;BME280_pressure;Samples;Min_cycle;Max_cycle;Signal;HPM_P1;HPM_P2
2022/04/14 00:02:06;;;;;;;7.10;6.90;;;22.30;56.30;;;;;;5098807;22;20527;-48
2022/04/14 00:04:35;;;;;;;7.77;7.47;;;22.30;56.30;;;;;;5084294;28;20443;-48
2022/04/14 00:07:01;;;;;;;8.10;7.70;;;22.30;56.30;;;;;;5092114;28;20936;-49
2022/04/14 00:09:30;;;;;;;7.30;7.10;;;22.30;56.40;;;;;;5092106;28;21131;-49
2022/04/14 00:11:56;;;;;;;7.20;7.00;;;22.30;56.40;;;;;;5058920;28;20468;-52
2022/04/14 00:14:24;;;;;;;7.60;7.40;;;22.30;56.40;;;;;;5051821;28;20448;-49
2022/04/14 00:16:51;;;;;;;8.60;8.10;;;22.30;56.40;;;;;;5051493;28;20455;-48
2022/04/14 00:19:18;;;;;;;7.30;7.07;;;22.20;56.40;;;;;;5051385;28;20448;-52
2022/04/14 00:21:44;;;;;;;7.27;7.07;;;22.30;56.50;;;;;;5051628;28;20473;-50
2022/04/14 00:24:11;;;;;;;6.90;6.50;;;22.30;56.50;;;;;;5051619;28;20455;-49
2022/04/14 00:26:40;;;;;;;8.00;7.80;;;22.30;56.50;;;;;;5050593;28;20441;-51
2022/04/14 00:29:06;;;;;;;6.43;6.33;;;22.20;56.40;;;;;;5051545;28;20827;-50
2022/04/14 00:31:33;;;;;;;6.67;6.40;;;22.20;56.40;;;;;;5051388;28;20472;-50
2022/04/14 00:34:00;;;;;;;7.20;6.80;;;22.20;56.40;;;;;;5051708;28;20443;-51
2022/04/14 00:36:27;;;;;;;7.00;6.80;;;22.20;56.40;;;;;;5051023;28;20448;-53
2022/04/14 00:38:53;;;;;;;7.20;6.80;;;22.20;56.30;;;;;;5051518;28;20474;-50
2022/04/14 00:41:20;;;;;;;7.40;7.10;;;22.20;56.40;;;;;;5051266;28;20460;-53
2022/04/14 00:43:52;;;;;;;6.90;6.70;;;22.20;56.40;;;;;;5051324;28;20489;-50
2022/04/14 00:46:19;;;;;;;7.20;6.90;;;22.20;56.50;;;;;;5051258;28;20448;-48
2022/04/14 00:48:46;;;;;;;6.80;6.60;;;22.20;56.50;;;;;;5051377;28;20454;-49
2022/04/14 00:51:13;;;;;;;6.60;6.40;;;22.20;56.50;;;;;;5051216;28;20463;-49
2022/04/14 00:53:40;;;;;;;7.70;7.40;;;22.20;56.60;;;;;;5051325;28;20440;-53
2022/04/14 00:56:08;;;;;;;7.00;6.70;;;22.20;56.50;;;;;;5051114;28;20452;-49
2022/04/14 00:58:35;;;;;;;6.90;6.70;;;22.20;56.60;;;;;;5051270;28;20444;-51
2022/04/14 01:01:05;;;;;;;7.00;6.80;;;22.10;56.50;;;;;;5051167;28;20479;-53
2022/04/14 01:03:32;;;;;;;7.57;7.17;;;22.10;56.50;;;;;;5051125;28;20480;-49
2022/04/14 01:06:00;;;;;;;7.87;7.60;;;22.10;56.70;;;;;;5051139;28;20451;-53
2022/04/14 01:08:28;;;;;;;6.93;6.73;;;22.10;56.70;;;;;;5050969;28;20456;-53
2022/04/14 01:10:57;;;;;;;6.57;6.37;;;22.10;56.70;;;;;;5051200;28;20522;-53
2022/04/14 01:13:24;;;;;;;7.43;7.13;;;22.10;56.80;;;;;;5051430;28;20451;-50
2022/04/14 01:15:56;;;;;;;7.40;6.87;;;22.10;56.90;;;;;;5050950;28;20448;-50
2022/04/14 01:18:25;;;;;;;6.90;6.70;;;22.10;56.80;;;;;;5050807;28;20457;-53
2022/04/14 01:20:51;;;;;;;7.33;7.03;;;22.10;56.90;;;;;;5051007;28;20465;-53
2022/04/14 01:23:24;;;;;;;7.90;7.50;;;22.10;57.00;;;;;;5051035;28;20480;-51
2022/04/14 01:25:52;;;;;;;7.13;6.83;;;22.10;57.00;;;;;;5050588;28;20973;-51
2022/04/14 01:28:19;;;;;;;7.30;6.93;;;22.10;57.00;;;;;;5051182;28;20455;-52
2022/04/14 01:30:46;;;;;;;7.00;6.80;;;22.00;57.00;;;;;;5050925;28;20885;-52
2022/04/14 01:33:12;;;;;;;7.40;7.00;;;22.10;57.10;;;;;;5050956;28;20444;-49
2022/04/14 01:35:39;;;;;;;7.47;7.27;;;22.10;57.20;;;;;;5050767;28;20453;-48
2022/04/14 01:38:06;;;;;;;7.30;7.00;;;22.10;57.00;;;;;;5051424;28;20451;-49
2022/04/14 01:40:33;;;;;;;6.90;6.60;;;22.10;57.20;;;;;;5054425;28;20448;-48
2022/04/14 01:43:01;;;;;;;7.83;7.50;;;22.00;57.10;;;;;;5054267;28;20480;-49
2022/04/14 01:45:28;;;;;;;7.63;7.40;;;22.00;57.70;;;;;;5054308;28;20455;-50
2022/04/14 01:47:55;;;;;;;6.60;6.40;;;22.00;57.20;;;;;;5054388;28;20447;-48
2022/04/14 01:50:22;;;;;;;6.77;6.47;;;22.00;57.20;;;;;;5054415;28;20444;-52
2022/04/14 01:52:49;;;;;;;9.10;8.50;;;22.00;57.30;;;;;;5054028;28;20469;-49
2022/04/14 01:55:15;;;;;;;7.40;7.00;;;22.00;57.30;;;;;;5054264;28;20441;-52
2022/04/14 01:57:44;;;;;;;7.50;7.20;;;22.00;57.40;;;;;;5054206;28;20448;-49
2022/04/14 02:00:15;;;;;;;7.43;7.13;;;22.00;57.30;;;;;;5054258;28;20982;-49
2022/04/14 02:02:42;;;;;;;8.60;8.30;;;22.00;57.30;;;;;;5053831;28;20582;-46
2022/04/14 02:05:09;;;;;;;7.10;6.90;;;22.00;57.40;;;;;;5054082;28;20449;-48
2022/04/14 02:07:36;;;;;;;7.50;7.30;;;21.90;57.40;;;;;;5053943;28;20453;-50
2022/04/14 02:10:03;;;;;;;7.37;7.07;;;22.00;57.60;;;;;;5054078;28;20953;-49
2022/04/14 02:12:30;;;;;;;7.40;7.20;;;21.90;57.40;;;;;;5053879;28;20467;-49
2022/04/14 02:14:57;;;;;;;7.60;7.30;;;21.90;57.50;;;;;;5053639;28;20510;-49
2022/04/14 02:17:25;;;;;;;7.20;7.00;;;21.90;57.50;;;;;;5053761;28;20847;-52
2022/04/14 02:19:51;;;;;;;7.20;7.00;;;21.90;57.60;;;;;;5053875;28;20459;-50
2022/04/14 02:22:18;;;;;;;7.40;7.20;;;21.90;57.70;;;;;;5053650;28;20470;-50
2022/04/14 02:24:45;;;;;;;7.20;7.00;;;21.90;57.60;;;;;;5053730;28;20452;-50
2022/04/14 02:27:12;;;;;;;7.03;6.83;;;21.90;58.20;;;;;;5053529;28;20456;-48
2022/04/14 02:29:38;;;;;;;7.47;7.17;;;21.90;57.70;;;;;;5053672;28;20449;-51
2022/04/14 02:32:06;;;;;;;7.27;6.97;;;21.90;57.80;;;;;;5053178;28;20842;-49
2022/04/14 02:34:34;;;;;;;7.60;7.30;;;21.90;57.80;;;;;;5053510;28;20440;-50
2022/04/14 02:37:01;;;;;;;8.00;7.70;;;21.90;57.80;;;;;;5053124;28;20456;-50
2022/04/14 02:39:28;;;;;;;7.33;7.13;;;21.90;57.80;;;;;;5053373;28;20817;-49
2022/04/14 02:41:55;;;;;;;7.43;7.20;;;21.90;57.90;;;;;;5053178;28;20471;-49
2022/04/14 02:44:21;;;;;;;7.63;7.43;;;21.90;57.90;;;;;;5053342;28;20490;-51
2022/04/14 02:46:48;;;;;;;7.40;7.20;;;21.90;57.90;;;;;;5053167;28;20444;-49
2022/04/14 02:49:15;;;;;;;7.40;7.00;;;21.90;58.00;;;;;;5053090;28;20448;-49
2022/04/14 02:51:43;;;;;;;7.90;7.50;;;21.90;58.10;;;;;;5052952;28;20472;-49
2022/04/14 02:54:09;;;;;;;7.00;6.80;;;21.80;58.10;;;;;;5052917;28;20444;-49
2022/04/14 02:56:36;;;;;;;8.40;8.10;;;21.90;58.10;;;;;;5052550;28;20445;-49
2022/04/14 02:59:03;;;;;;;7.57;7.17;;;21.80;58.10;;;;;;5053100;28;20444;-48
2022/04/14 03:01:30;;;;;;;7.20;7.00;;;21.80;58.20;;;;;;5052849;28;20472;-49
2022/04/14 03:03:57;;;;;;;7.57;7.37;;;21.80;58.20;;;;;;5052989;28;20488;-52
2022/04/14 03:06:23;;;;;;;9.23;8.90;;;21.80;58.20;;;;;;5052803;28;20450;-50
2022/04/14 03:08:51;;;;;;;7.73;7.27;;;21.80;58.20;;;;;;5052737;28;20823;-49
2022/04/14 03:11:18;;;;;;;8.10;7.80;;;21.80;58.20;;;;;;5052804;28;20460;-52
2022/04/14 03:13:45;;;;;;;8.23;7.93;;;21.80;58.40;;;;;;5052908;28;20447;-49
2022/04/14 03:16:13;;;;;;;8.00;7.70;;;21.80;58.40;;;;;;5052318;28;20450;-53
2022/04/14 03:18:40;;;;;;;8.67;8.37;;;21.80;58.50;;;;;;5052712;28;20452;-49
2022/04/14 03:21:06;;;;;;;8.13;7.83;;;21.70;58.50;;;;;;5052589;28;20832;-52
2022/04/14 03:23:33;;;;;;;8.17;7.87;;;21.70;58.60;;;;;;5052636;28;20480;-50
2022/04/14 03:26:03;;;;;;;7.93;7.63;;;21.70;58.60;;;;;;5052151;28;20452;-49
2022/04/14 03:28:30;;;;;;;8.67;8.27;;;21.70;58.70;;;;;;5052510;28;20539;-49
2022/04/14 03:30:57;;;;;;;7.87;7.67;;;21.70;58.80;;;;;;5052445;28;20465;-49
2022/04/14 03:33:24;;;;;;;8.47;8.17;;;21.70;58.70;;;;;;5052395;28;20445;-49
2022/04/14 03:35:50;;;;;;;7.90;7.60;;;21.70;58.90;;;;;;5052040;28;20452;-51
2022/04/14 03:38:17;;;;;;;8.20;7.90;;;21.70;58.90;;;;;;5052316;28;20448;-49
2022/04/14 03:40:44;;;;;;;7.90;7.70;;;21.70;58.80;;;;;;5052191;28;20757;-51
2022/04/14 03:43:12;;;;;;;8.40;8.07;;;21.70;58.90;;;;;;5051985;28;20495;-51
2022/04/14 03:45:39;;;;;;;8.30;7.90;;;21.70;58.80;;;;;;5052087;28;20444;-48
2022/04/14 03:48:06;;;;;;;8.87;8.47;;;21.70;58.80;;;;;;5052187;28;20445;-50
2022/04/14 03:50:33;;;;;;;8.20;7.90;;;21.70;59.00;;;;;;5052043;28;20510;-49
2022/04/14 03:53:00;;;;;;;8.83;8.53;;;21.70;58.90;;;;;;5051875;28;20927;-49
2022/04/14 03:55:27;;;;;;;8.50;8.00;;;21.70;58.90;;;;;;5051947;28;20510;-51
2022/04/14 03:57:54;;;;;;;8.77;8.37;;;21.70;59.00;;;;;;5052004;28;20620;-53
2022/04/14 04:00:22;;;;;;;8.30;7.90;;;21.70;59.00;;;;;;5051683;28;20456;-53
2022/04/14 04:02:49;;;;;;;8.37;7.97;;;21.70;59.00;;;;;;5051184;28;20991;-52
2022/04/14 04:05:16;;;;;;;8.17;7.90;;;21.70;59.00;;;;;;5051165;28;20441;-52
2022/04/14 04:07:42;;;;;;;8.67;8.37;;;21.60;59.20;;;;;;5051752;28;20819;-50
2022/04/14 04:10:09;;;;;;;9.30;8.80;;;21.70;59.20;;;;;;5051974;28;20456;-51
2022/04/14 04:12:36;;;;;;;8.53;8.23;;;21.70;59.60;;;;;;5051672;28;20456;-49
2022/04/14 04:15:03;;;;;;;9.30;8.90;;;21.70;59.10;;;;;;5051573;28;20453;-50
2022/04/14 04:17:31;;;;;;;9.00;8.70;;;21.70;59.10;;;;;;5051483;28;20440;-50
2022/04/14 04:19:58;;;;;;;8.27;8.00;;;21.70;59.20;;;;;;5051698;28;20455;-49
2022/04/14 04:22:25;;;;;;;8.90;8.43;;;21.70;59.10;;;;;;5051031;28;20460;-52
2022/04/14 04:24:51;;;;;;;8.77;8.47;;;21.70;59.30;;;;;;5051485;28;20484;-50
2022/04/14 04:27:18;;;;;;;8.63;8.33;;;21.60;59.20;;;;;;5051464;28;20448;-52
2022/04/14 04:29:45;;;;;;;8.83;8.23;;;21.70;59.30;;;;;;5051552;28;20955;-49
2022/04/14 04:32:11;;;;;;;8.30;7.90;;;21.60;59.20;;;;;;5051169;28;20476;-48
2022/04/14 04:34:40;;;;;;;9.07;8.53;;;21.70;59.70;;;;;;5051434;28;20887;-51
2022/04/14 04:37:06;;;;;;;9.97;9.47;;;21.70;63.80;;;;;;5051279;28;20447;-49
2022/04/14 04:39:33;;;;;;;13.00;12.10;;;21.60;62.80;;;;;;5051463;28;21125;-48
2022/04/14 04:42:00;;;;;;;13.57;12.33;;;21.60;63.60;;;;;;5051211;28;20472;-49
2022/04/14 04:44:26;;;;;;;14.77;13.70;;;21.60;65.30;;;;;;5051338;28;20484;-51
2022/04/14 04:46:53;;;;;;;17.47;16.03;;;21.60;66.40;;;;;;5051583;28;20620;-48
2022/04/14 04:49:20;;;;;;;17.30;16.00;;;21.60;68.50;;;;;;5051289;28;20452;-48
2022/04/14 04:51:48;;;;;;;16.77;15.50;;;21.60;68.90;;;;;;5051448;28;20468;-51
2022/04/14 04:54:15;;;;;;;19.00;17.60;;;21.60;69.60;;;;;;5051334;28;20765;-50
2022/04/14 04:56:42;;;;;;;17.27;16.03;;;21.50;70.00;;;;;;5051062;28;20449;-48
2022/04/14 04:59:09;;;;;;;17.17;15.77;;;21.50;69.10;;;;;;5050983;28;20444;-49
2022/04/14 05:01:35;;;;;;;20.70;17.77;;;21.50;69.60;;;;;;5031094;28;20945;-48
2022/04/14 05:04:02;;;;;;;24.30;18.50;;;21.60;80.50;;;;;;5031500;28;20482;-49
2022/04/14 05:06:29;;;;;;;31.00;19.50;;;21.60;96.60;;;;;;5030954;28;20449;-49
2022/04/14 05:08:57;;;;;;;23.50;17.27;;;21.70;99.90;;;;;;5045350;28;20963;-48
2022/04/14 05:11:24;;;;;;;19.80;12.33;;;21.70;99.90;;;;;;5051232;28;20464;-49
2022/04/14 05:13:50;;;;;;;16.90;15.40;;;21.70;99.90;;;;;;5054753;28;20440;-49
2022/04/14 05:16:17;;;;;;;21.30;19.37;;;21.60;99.90;;;;;;5054414;28;21021;-49
2022/04/14 05:18:44;;;;;;;21.67;18.60;;;21.60;99.90;;;;;;5054525;28;20444;-49
2022/04/14 05:21:10;;;;;;;18.80;17.10;;;21.60;99.90;;;;;;5054766;28;20468;-51
2022/04/14 05:23:37;;;;;;;20.27;18.63;;;21.50;99.90;;;;;;5054837;28;20847;-50
2022/04/14 05:26:05;;;;;;;17.87;16.40;;;21.50;99.90;;;;;;5054865;28;20444;-50
2022/04/14 05:28:32;;;;;;;16.23;14.97;;;21.50;99.90;;;;;;5054691;28;20452;-49
2022/04/14 05:31:00;;;;;;;15.90;14.70;;;21.50;99.40;;;;;;5054666;28;20971;-49
2022/04/14 05:33:27;;;;;;;15.80;14.40;;;21.60;98.70;;;;;;5054788;28;20943;-48
2022/04/14 05:35:54;;;;;;;14.83;13.83;;;21.60;97.90;;;;;;5054458;28;20447;-49
2022/04/14 05:38:20;;;;;;;13.80;13.07;;;21.60;97.30;;;;;;5054656;28;20440;-50
2022/04/14 05:40:47;;;;;;;13.30;12.40;;;21.50;96.80;;;;;;5054879;28;20475;-48
2022/04/14 05:43:19;;;;;;;13.23;12.33;;;21.50;96.10;;;;;;5054489;28;20447;-49
2022/04/14 05:45:47;;;;;;;13.20;12.20;;;21.60;95.70;;;;;;5054386;28;20436;-48
2022/04/14 05:48:14;;;;;;;13.50;12.60;;;21.60;95.00;;;;;;5054589;28;20484;-51
2022/04/14 05:50:41;;;;;;;12.00;11.30;;;21.60;94.50;;;;;;5054241;28;20448;-53
2022/04/14 05:53:08;;;;;;;11.50;10.90;;;21.60;94.20;;;;;;5054340;28;20962;-48
2022/04/14 05:55:35;;;;;;;12.77;12.07;;;21.60;93.60;;;;;;5054197;28;20447;-53
2022/04/14 05:58:03;;;;;;;11.50;10.93;;;21.60;93.20;;;;;;5054232;28;20510;-49
2022/04/14 06:00:31;;;;;;;11.43;11.03;;;21.60;92.70;;;;;;5054070;28;20475;-49
2022/04/14 06:02:59;;;;;;;12.10;11.20;;;21.60;92.40;;;;;;5096974;22;20491;-50
2022/04/14 06:05:26;;;;;;;11.40;10.73;;;21.60;92.10;;;;;;5073930;28;20544;-47
2022/04/14 06:07:53;;;;;;;11.87;11.27;;;21.60;91.60;;;;;;5074237;28;20455;-47
2022/04/14 06:10:20;;;;;;;10.93;10.43;;;21.60;91.10;;;;;;5074057;28;20949;-48
2022/04/14 06:12:47;;;;;;;12.03;11.43;;;21.60;90.90;;;;;;5074099;28;20460;-49
2022/04/14 06:15:14;;;;;;;11.80;11.10;;;21.50;90.60;;;;;;5073902;28;20449;-50
2022/04/14 06:17:42;;;;;;;12.53;11.83;;;21.50;90.30;;;;;;5073921;28;20443;-51
2022/04/14 06:20:10;;;;;;;10.87;10.43;;;21.50;90.10;;;;;;5073905;28;20482;-47
2022/04/14 06:22:38;;;;;;;10.93;10.43;;;21.60;89.80;;;;;;5073764;28;20474;-48
2022/04/14 06:25:12;;;;;;;11.87;11.33;;;21.50;88.90;;;;;;5072711;28;20519;-48
2022/04/14 06:27:39;;;;;;;11.63;10.93;;;21.60;88.40;;;;;;5073183;28;20927;-47
2022/04/14 06:30:08;;;;;;;11.20;10.70;;;21.50;87.60;;;;;;5073694;28;20447;-47
2022/04/14 06:32:35;;;;;;;11.90;11.30;;;21.50;87.30;;;;;;5073788;28;20467;-47
2022/04/14 06:35:04;;;;;;;10.93;10.17;;;21.50;86.70;;;;;;5073536;28;20447;-47
2022/04/14 06:37:30;;;;;;;11.13;10.63;;;21.50;86.30;;;;;;5073304;28;20448;-50
2022/04/14 06:39:57;;;;;;;11.37;10.90;;;21.50;85.80;;;;;;5073744;28;20451;-48
2022/04/14 06:42:24;;;;;;;12.20;11.60;;;21.50;85.70;;;;;;5073428;28;20459;-48
2022/04/14 06:44:51;;;;;;;11.10;10.70;;;21.50;85.40;;;;;;5073620;28;20487;-50
2022/04/14 06:47:17;;;;;;;10.80;10.30;;;21.50;84.80;;;;;;5073128;28;20439;-47
2022/04/14 06:49:44;;;;;;;11.07;10.57;;;21.50;84.60;;;;;;5073456;28;20444;-47
2022/04/14 06:52:12;;;;;;;11.60;11.00;;;21.50;84.10;;;;;;5073148;28;20494;-50
2022/04/14 06:54:39;;;;;;;10.67;10.27;;;21.50;84.00;;;;;;5073130;28;20439;-50
2022/04/14 06:57:06;;;;;;;11.10;10.47;;;21.50;83.50;;;;;;5072955;28;20869;-47
2022/04/14 06:59:32;;;;;;;10.83;10.43;;;21.50;83.10;;;;;;5073181;28;20443;-47
2022/04/14 07:01:59;;;;;;;11.03;10.63;;;21.50;82.80;;;;;;5072786;28;20483;-48
2022/04/14 07:04:27;;;;;;;11.30;10.80;;;21.50;82.40;;;;;;5072918;28;20479;-47
2022/04/14 07:06:53;;;;;;;10.67;10.27;;;21.50;82.00;;;;;;5072789;28;20451;-47
2022/04/14 07:09:21;;;;;;;10.23;9.93;;;21.50;81.60;;;;;;5072900;28;20825;-47
2022/04/14 07:11:48;;;;;;;10.37;10.07;;;21.50;81.70;;;;;;5072784;28;20467;-48
2022/04/14 07:14:16;;;;;;;10.33;10.00;;;21.50;81.30;;;;;;5073123;28;20439;-49
2022/04/14 07:16:43;;;;;;;10.70;10.20;;;21.50;81.00;;;;;;5072861;28;20501;-47
2022/04/14 07:19:10;;;;;;;10.00;9.63;;;21.50;80.60;;;;;;5072766;28;20444;-48
2022/04/14 07:21:36;;;;;;;9.90;9.60;;;21.50;80.30;;;;;;5072703;28;20459;-48
2022/04/14 07:24:03;;;;;;;11.53;11.13;;;21.50;80.20;;;;;;5072712;28;20499;-48
2022/04/14 07:26:31;;;;;;;9.97;9.67;;;21.50;79.80;;;;;;5072301;28;20964;-47
2022/04/14 07:28:58;;;;;;;11.00;10.50;;;21.50;79.70;;;;;;5072546;28;20448;-47
2022/04/14 07:31:25;;;;;;;9.97;9.57;;;21.40;79.50;;;;;;5072445;28;20464;-48
2022/04/14 07:33:51;;;;;;;9.77;9.43;;;21.40;79.20;;;;;;5072411;28;20448;-47
2022/04/14 07:36:21;;;;;;;10.43;10.10;;;21.40;79.20;;;;;;5072585;28;20447;-48
2022/04/14 07:38:48;;;;;;;10.83;10.13;;;21.40;79.00;;;;;;5072657;28;20552;-47
2022/04/14 07:41:14;;;;;;;10.27;9.90;;;21.40;78.80;;;;;;5072271;28;20985;-48
2022/04/14 07:43:42;;;;;;;9.97;9.57;;;21.40;78.40;;;;;;5072243;28;20450;-48
2022/04/14 07:46:09;;;;;;;10.13;9.73;;;21.50;78.20;;;;;;5071882;28;20483;-47
2022/04/14 07:48:36;;;;;;;10.13;9.83;;;21.40;78.10;;;;;;5072541;28;20635;-47
2022/04/14 07:51:03;;;;;;;10.67;10.27;;;21.50;77.50;;;;;;5072223;28;20438;-47
2022/04/14 07:53:30;;;;;;;10.40;9.90;;;21.50;77.50;;;;;;5072084;28;20458;-49
2022/04/14 07:55:57;;;;;;;11.13;10.57;;;21.50;77.30;;;;;;5072155;28;20436;-50
2022/04/14 07:58:24;;;;;;;10.57;10.17;;;21.50;76.90;;;;;;5071976;28;20444;-48
2022/04/14 08:00:52;;;;;;;9.70;9.33;;;21.50;76.90;;;;;;5072023;28;20455;-51
2022/04/14 08:03:19;;;;;;;10.87;10.47;;;21.50;76.70;;;;;;5071879;28;20452;-50
2022/04/14 08:05:48;;;;;;;9.67;9.37;;;21.50;76.30;;;;;;5071723;28;20845;-47
2022/04/14 08:08:17;;;;;;;9.87;9.40;;;21.50;76.30;;;;;;5071707;28;20960;-47
2022/04/14 08:10:45;;;;;;;9.40;9.00;;;21.50;76.30;;;;;;5071782;28;20918;-47
2022/04/14 08:13:12;;;;;;;9.93;9.60;;;21.50;76.10;;;;;;5071682;28;20977;-47
2022/04/14 08:15:39;;;;;;;10.23;9.80;;;21.50;75.90;;;;;;5071573;28;20479;-51
2022/04/14 08:18:08;;;;;;;10.03;9.53;;;21.50;75.90;;;;;;5071616;28;20810;-47
2022/04/14 08:20:35;;;;;;;10.50;10.00;;;21.50;75.60;;;;;;5071577;28;20454;-51
2022/04/14 08:23:03;;;;;;;9.80;9.50;;;21.40;75.20;;;;;;5071361;28;20565;-47
2022/04/14 08:25:32;;;;;;;10.07;9.63;;;21.50;74.90;;;;;;5071505;28;20902;-47
2022/04/14 08:28:00;;;;;;;10.50;9.97;;;21.50;74.80;;;;;;5071577;28;20448;-47
2022/04/14 08:30:29;;;;;;;9.80;9.43;;;21.50;74.70;;;;;;5071649;28;20454;-48
2022/04/14 08:32:56;;;;;;;9.87;9.57;;;21.50;74.50;;;;;;5071505;28;20509;-48
2022/04/14 08:35:26;;;;;;;9.17;8.80;;;21.50;74.50;;;;;;5071346;28;20444;-51
2022/04/14 08:37:53;;;;;;;9.50;9.10;;;21.50;74.30;;;;;;5071426;28;20892;-47
2022/04/14 08:40:22;;;;;;;9.33;9.03;;;21.50;74.10;;;;;;5071475;28;20443;-48
2022/04/14 08:42:53;;;;;;;9.57;9.10;;;21.50;74.20;;;;;;5071385;28;21032;-47
2022/04/14 08:45:25;;;;;;;9.27;9.00;;;21.40;74.00;;;;;;5071248;28;20489;-48
2022/04/14 08:47:53;;;;;;;9.30;9.00;;;21.50;73.70;;;;;;5075382;28;20455;-49
2022/04/14 08:50:20;;;;;;;9.50;9.20;;;21.50;73.60;;;;;;5078117;28;20906;-47
2022/04/14 08:52:49;;;;;;;9.10;8.80;;;21.50;73.70;;;;;;5078075;28;20470;-48
2022/04/14 08:55:15;;;;;;;9.40;9.10;;;21.50;73.40;;;;;;5078007;28;20457;-49
2022/04/14 08:57:42;;;;;;;8.90;8.70;;;21.50;73.20;;;;;;5077791;28;20534;-47
2022/04/14 09:00:11;;;;;;;8.47;8.20;;;21.50;72.90;;;;;;5077909;28;20439;-47
2022/04/14 09:02:38;;;;;;;9.03;8.73;;;21.50;73.00;;;;;;5077834;28;20471;-47
2022/04/14 09:05:06;;;;;;;9.17;8.77;;;21.50;72.60;;;;;;5077818;28;20596;-48
2022/04/14 09:07:33;;;;;;;9.67;9.37;;;21.50;72.70;;;;;;5077623;28;20435;-51
2022/04/14 09:10:01;;;;;;;9.20;8.90;;;21.50;72.70;;;;;;5077799;28;20435;-48
2022/04/14 09:12:30;;;;;;;9.00;8.70;;;21.40;72.40;;;;;;5077673;28;20463;-50
2022/04/14 09:14:56;;;;;;;8.67;8.37;;;21.50;72.50;;;;;;5078161;28;20446;-51
2022/04/14 09:17:23;;;;;;;8.80;8.50;;;21.50;71.80;;;;;;5077666;28;20439;-48
2022/04/14 09:19:50;;;;;;;10.40;10.10;;;21.50;71.80;;;;;;5077883;28;20447;-48
2022/04/14 09:22:17;;;;;;;9.50;9.20;;;21.50;71.90;;;;;;5077650;28;20485;-51
2022/04/14 09:24:45;;;;;;;9.70;9.30;;;21.50;71.90;;;;;;5077831;28;20479;-50
2022/04/14 09:27:28;;;;;;;8.77;8.57;;;21.50;71.60;;;;;;5077444;28;20942;-49
2022/04/14 09:29:57;;;;;;;8.00;7.70;;;21.50;71.40;;;;;;5077665;28;20848;-49
2022/04/14 09:32:30;;;;;;;8.03;7.73;;;21.50;72.00;;;;;;5077892;28;20824;-49
2022/04/14 09:34:57;;;;;;;8.07;7.80;;;21.50;71.20;;;;;;5077624;28;20443;-52
2022/04/14 09:37:24;;;;;;;8.10;7.90;;;21.50;71.30;;;;;;5077440;28;20445;-48
2022/04/14 09:39:53;;;;;;;8.70;8.30;;;21.50;71.00;;;;;;5077599;28;20447;-50
2022/04/14 09:42:22;;;;;;;8.70;8.43;;;21.50;70.90;;;;;;5077468;28;21001;-48
2022/04/14 09:44:51;;;;;;;8.20;7.90;;;21.60;71.20;;;;;;5077570;28;20844;-47
2022/04/14 09:47:40;;;;;;;8.20;8.00;;;21.60;70.70;;;;;;5077380;28;20925;-47
2022/04/14 09:50:22;;;;;;;8.67;8.37;;;21.60;70.50;;;;;;5077543;28;20439;-47
2022/04/14 09:53:06;;;;;;;8.30;8.00;;;21.60;70.60;;;;;;5077733;28;20494;-48
2022/04/14 09:55:34;;;;;;;9.20;8.90;;;21.60;70.40;;;;;;5077347;28;20447;-48
2022/04/14 09:58:10;;;;;;;8.67;8.37;;;21.60;70.20;;;;;;5077007;28;20508;-48
2022/04/14 10:00:41;;;;;;;8.73;8.30;;;21.60;70.00;;;;;;5073528;28;20789;-48
2022/04/14 10:03:09;;;;;;;8.77;8.47;;;21.60;70.10;;;;;;5074246;28;20494;-51
2022/04/14 10:05:36;;;;;;;8.13;7.93;;;21.60;69.80;;;;;;5074075;28;20486;-48
2022/04/14 10:08:07;;;;;;;9.50;9.07;;;21.60;69.80;;;;;;5074121;28;20814;-49
2022/04/14 10:10:34;;;;;;;8.43;8.10;;;21.60;69.80;;;;;;5074173;28;20497;-49
2022/04/14 10:13:05;;;;;;;8.40;8.10;;;21.60;69.70;;;;;;5074022;28;20463;-47
2022/04/14 10:15:33;;;;;;;8.50;8.30;;;21.60;69.30;;;;;;5073871;28;20440;-47
2022/04/14 10:18:06;;;;;;;8.20;8.00;;;21.70;69.60;;;;;;5073986;28;20470;-49
2022/04/14 10:20:33;;;;;;;9.10;8.80;;;21.60;69.20;;;;;;5073977;28;20522;-50
2022/04/14 10:23:02;;;;;;;8.30;8.00;;;21.70;69.10;;;;;;5073858;28;20491;-49
2022/04/14 10:25:29;;;;;;;7.53;7.33;;;21.70;69.30;;;;;;5073460;28;20479;-47
2022/04/14 10:27:58;;;;;;;8.10;7.90;;;21.60;69.00;;;;;;5073718;28;20942;-51
2022/04/14 10:30:25;;;;;;;8.43;8.23;;;21.70;69.10;;;;;;5073738;28;20439;-47
2022/04/14 10:32:55;;;;;;;8.60;8.30;;;21.70;69.20;;;;;;5073617;28;20834;-47
2022/04/14 10:35:24;;;;;;;8.83;8.53;;;21.70;69.10;;;;;;5073604;28;20857;-56
2022/04/14 10:37:57;;;;;;;7.90;7.70;;;21.70;69.00;;;;;;5073408;28;20455;-47
2022/04/14 10:40:24;;;;;;;8.43;8.13;;;21.70;68.80;;;;;;5073868;28;20444;-47
2022/04/14 10:42:54;;;;;;;8.50;8.20;;;21.70;68.60;;;;;;5073356;28;20979;-47
2022/04/14 10:45:23;;;;;;;8.17;7.97;;;21.70;68.40;;;;;;5073195;28;20483;-48
2022/04/14 10:48:00;;;;;;;8.00;7.70;;;21.70;68.60;;;;;;5073318;28;20458;-48
2022/04/14 10:50:31;;;;;;;8.00;7.80;;;21.70;68.40;;;;;;5073390;28;20790;-49
2022/04/14 10:53:02;;;;;;;8.30;8.10;;;21.70;68.60;;;;;;5073253;28;20467;-47
2022/04/14 10:55:35;;;;;;;9.20;8.90;;;21.70;69.10;;;;;;5073058;28;20443;-49
2022/04/14 10:58:02;;;;;;;8.50;8.20;;;21.80;68.40;;;;;;5073107;28;20440;-48
2022/04/14 11:00:37;;;;;;;8.00;7.80;;;21.80;68.30;;;;;;5073186;28;20447;-47
2022/04/14 11:03:11;;;;;;;8.40;8.00;;;21.80;68.60;;;;;;5073145;28;20474;-47
2022/04/14 11:05:44;;;;;;;8.30;7.97;;;21.80;68.20;;;;;;5072974;28;21025;-48
2022/04/14 11:08:21;;;;;;;8.70;8.40;;;21.80;68.30;;;;;;5073230;28;20774;-50
2022/04/14 11:10:54;;;;;;;7.60;7.40;;;21.80;68.00;;;;;;5072542;28;20443;-48
2022/04/14 11:13:20;;;;;;;7.87;7.67;;;21.80;68.00;;;;;;5073022;28;20444;-47
2022/04/14 11:15:47;;;;;;;7.97;7.77;;;21.90;67.70;;;;;;5072718;28;20454;-47
2022/04/14 11:18:16;;;;;;;8.03;7.83;;;21.90;68.20;;;;;;5072687;28;20799;-49
2022/04/14 11:20:57;;;;;;;8.33;8.13;;;21.90;67.40;;;;;;5072729;28;20458;-47
2022/04/14 11:23:27;;;;;;;7.73;7.53;;;22.00;66.90;;;;;;5072601;28;20443;-48
2022/04/14 11:26:02;;;;;;;8.20;7.90;;;22.00;66.90;;;;;;5072271;28;20849;-49
2022/04/14 11:28:30;;;;;;;8.00;7.70;;;22.00;66.90;;;;;;5072662;28;20474;-47
2022/04/14 11:30:58;;;;;;;8.20;7.90;;;22.10;67.10;;;;;;5072621;28;20534;-47
2022/04/14 11:33:35;;;;;;;8.00;7.80;;;22.10;66.30;;;;;;5072553;28;20439;-47
2022/04/14 11:36:14;;;;;;;7.90;7.70;;;22.10;66.20;;;;;;5072262;28;20439;-49
2022/04/14 11:38:58;;;;;;;8.33;8.13;;;22.10;66.20;;;;;;5072338;28;20832;-48
2022/04/14 11:41:39;;;;;;;7.90;7.70;;;22.10;66.20;;;;;;5072329;28;20463;-48
2022/04/14 11:44:08;;;;;;;9.00;8.70;;;22.10;66.40;;;;;;5072383;28;20443;-49
2022/04/14 11:46:38;;;;;;;8.77;8.47;;;22.10;66.30;;;;;;5071754;28;20487;-49
2022/04/14 11:49:05;;;;;;;8.10;7.90;;;22.10;65.80;;;;;;5072360;28;20500;-49
2022/04/14 11:51:40;;;;;;;8.43;8.13;;;22.10;66.20;;;;;;5072326;28;20470;-50
2022/04/14 11:54:07;;;;;;;7.83;7.63;;;22.10;66.50;;;;;;5072183;28;20493;-48
2022/04/14 11:56:34;;;;;;;8.40;8.20;;;22.10;64.80;;;;;;5071823;28;20451;-47
2022/04/14 11:59:00;;;;;;;8.10;7.90;;;22.20;64.10;;;;;;5071986;28;20458;-47
2022/04/14 12:01:27;;;;;;;8.00;7.80;;;22.30;63.50;;;;;;5097006;22;20515;-49
2022/04/14 12:03:55;;;;;;;7.60;7.40;;;22.50;62.50;;;;;;5080293;28;20779;-50
2022/04/14 12:06:21;;;;;;;8.83;8.60;;;22.70;61.70;;;;;;5090702;28;20479;-49
2022/04/14 12:08:59;;;;;;;8.63;8.43;;;22.80;60.90;;;;;;5092173;28;20560;-50
2022/04/14 12:11:30;;;;;;;8.20;8.00;;;22.90;60.30;;;;;;5091979;28;20465;-50
2022/04/14 12:13:58;;;;;;;8.40;8.20;;;22.90;59.90;;;;;;5092005;28;20921;-50
2022/04/14 12:16:27;;;;;;;8.30;8.10;;;23.00;59.70;;;;;;5091919;28;20446;-50
2022/04/14 12:18:55;;;;;;;9.17;8.87;;;23.10;59.40;;;;;;5092260;28;20450;-49
2022/04/14 12:21:23;;;;;;;7.80;7.60;;;23.00;59.20;;;;;;5091471;28;20455;-50
2022/04/14 12:23:51;;;;;;;7.97;7.77;;;22.80;59.40;;;;;;5091597;28;20797;-52
2022/04/14 12:26:21;;;;;;;8.10;7.90;;;22.70;59.60;;;;;;5091445;28;20478;-52
2022/04/14 12:28:48;;;;;;;8.47;8.27;;;22.70;59.90;;;;;;5092070;28;20439;-48
2022/04/14 12:31:17;;;;;;;7.30;7.00;;;22.60;60.10;;;;;;5091702;28;20880;-48
2022/04/14 12:33:56;;;;;;;7.73;7.53;;;22.60;60.40;;;;;;5091768;28;20446;-48
2022/04/14 12:36:33;;;;;;;8.70;8.50;;;22.70;60.40;;;;;;5091385;28;20917;-49
2022/04/14 12:39:00;;;;;;;7.87;7.60;;;22.80;59.90;;;;;;5091757;28;20454;-50
2022/04/14 12:41:34;;;;;;;8.90;8.50;;;22.80;59.50;;;;;;5091434;28;20442;-48
2022/04/14 12:44:01;;;;;;;8.50;8.30;;;22.80;59.50;;;;;;5091759;28;20458;-48
2022/04/14 12:46:30;;;;;;;7.87;7.60;;;22.70;59.60;;;;;;5091272;28;20535;-48